Terminal Aerodrome Forecast
Issued by NWS

Home | Current Version | Previous Version | Text Only | Print | Product List | Glossary On
Versions: 1 2 3 4 5 6 7 8 9 10 11 12 13 14 15 16 17 18 19 20 21 22 23 24 25 26 27 28 29
000
FTAK31 PANC 202331
TAFAEN
TAF
PAEN 202331Z 2100/2124 VRB04KT P6SM SCT030 OVC045
     FM210600 03007KT 6SM -SHRASN OVC035
     FM211000 03011KT P6SM VCSH SCT030 BKN060=

USA.gov is the U.S. government's official web portal to all federal, state and local government web resources and services.